sensor_id;sensor_type;location;lat;lon;timestamp;pressure;altitude;pressure_sealevel;temperature;humidity
10720;BME280;5411;58.386;15.560;2023-05-20T00:00:31;102094.75;;;9.78;77.05
10720;BME280;5411;58.386;15.560;2023-05-20T00:02:59;102095.22;;;9.73;76.90
10720;BME280;5411;58.386;15.560;2023-05-20T00:05:27;102104.56;;;9.69;77.13
10720;BME280;5411;58.386;15.560;2023-05-20T00:07:55;102106.84;;;9.64;76.93
10720;BME280;5411;58.386;15.560;2023-05-20T00:10:24;102103.47;;;9.62;77.79
10720;BME280;5411;58.386;15.560;2023-05-20T00:12:53;102108.31;;;9.58;76.52
10720;BME280;5411;58.386;15.560;2023-05-20T00:15:22;102094.09;;;9.58;77.58
10720;BME280;5411;58.386;15.560;2023-05-20T00:17:50;102099.75;;;9.55;77.98
10720;BME280;5411;58.386;15.560;2023-05-20T00:20:18;102103.56;;;9.52;78.96
10720;BME280;5411;58.386;15.560;2023-05-20T00:22:47;102108.22;;;9.50;78.07
10720;BME280;5411;58.386;15.560;2023-05-20T00:25:15;102105.00;;;9.47;79.12
10720;BME280;5411;58.386;15.560;2023-05-20T00:27:44;102103.63;;;9.43;78.52
10720;BME280;5411;58.386;15.560;2023-05-20T00:30:14;102105.06;;;9.37;80.05
10720;BME280;5411;58.386;15.560;2023-05-20T00:32:43;102096.16;;;9.28;79.89
10720;BME280;5411;58.386;15.560;2023-05-20T00:35:11;102099.97;;;9.26;79.74
10720;BME280;5411;58.386;15.560;2023-05-20T00:37:39;102102.94;;;9.23;80.86
10720;BME280;5411;58.386;15.560;2023-05-20T00:40:09;102091.88;;;9.18;81.45
10720;BME280;5411;58.386;15.560;2023-05-20T00:42:41;102101.84;;;9.16;81.56
10720;BME280;5411;58.386;15.560;2023-05-20T00:45:10;102097.81;;;9.12;81.70
10720;BME280;5411;58.386;15.560;2023-05-20T00:47:41;102097.09;;;9.10;81.80
10720;BME280;5411;58.386;15.560;2023-05-20T00:50:10;102095.72;;;9.06;82.25
10720;BME280;5411;58.386;15.560;2023-05-20T00:52:38;102088.03;;;9.03;82.13
10720;BME280;5411;58.386;15.560;2023-05-20T00:55:10;102090.00;;;9.01;81.94
10720;BME280;5411;58.386;15.560;2023-05-20T00:57:39;102083.69;;;9.02;82.39
10720;BME280;5411;58.386;15.560;2023-05-20T01:00:08;102092.81;;;8.99;82.69
10720;BME280;5411;58.386;15.560;2023-05-20T01:02:40;102099.44;;;8.95;82.82
10720;BME280;5411;58.386;15.560;2023-05-20T01:05:09;102091.44;;;8.95;82.60
10720;BME280;5411;58.386;15.560;2023-05-20T01:07:37;102094.25;;;8.93;82.92
10720;BME280;5411;58.386;15.560;2023-05-20T01:10:08;102087.41;;;8.91;83.28
10720;BME280;5411;58.386;15.560;2023-05-20T01:12:39;102092.03;;;8.89;83.68
10720;BME280;5411;58.386;15.560;2023-05-20T01:15:10;102103.00;;;8.86;83.54
10720;BME280;5411;58.386;15.560;2023-05-20T01:17:43;102098.81;;;8.83;84.09
10720;BME280;5411;58.386;15.560;2023-05-20T01:20:13;102102.47;;;8.82;84.02
10720;BME280;5411;58.386;15.560;2023-05-20T01:22:47;102104.28;;;8.82;84.33
10720;BME280;5411;58.386;15.560;2023-05-20T01:25:15;102106.25;;;8.80;84.23
10720;BME280;5411;58.386;15.560;2023-05-20T01:27:45;102108.78;;;8.81;84.28
10720;BME280;5411;58.386;15.560;2023-05-20T01:30:15;102108.41;;;8.76;84.92
10720;BME280;5411;58.386;15.560;2023-05-20T01:32:47;102107.72;;;8.74;84.57
10720;BME280;5411;58.386;15.560;2023-05-20T01:35:18;102108.56;;;8.75;84.68
10720;BME280;5411;58.386;15.560;2023-05-20T01:37:51;102105.19;;;8.73;85.13
10720;BME280;5411;58.386;15.560;2023-05-20T01:40:20;102103.50;;;8.72;84.70
10720;BME280;5411;58.386;15.560;2023-05-20T01:42:49;102101.81;;;8.71;85.58
10720;BME280;5411;58.386;15.560;2023-05-20T01:45:22;102102.94;;;8.68;85.79
10720;BME280;5411;58.386;15.560;2023-05-20T01:47:51;102106.75;;;8.66;86.48
10720;BME280;5411;58.386;15.560;2023-05-20T01:50:19;102106.06;;;8.64;86.61
10720;BME280;5411;58.386;15.560;2023-05-20T01:52:49;102104.41;;;8.63;86.19
10720;BME280;5411;58.386;15.560;2023-05-20T01:55:17;102107.22;;;8.61;86.86
10720;BME280;5411;58.386;15.560;2023-05-20T01:57:46;102102.84;;;8.60;87.23
10720;BME280;5411;58.386;15.560;2023-05-20T02:00:14;102110.00;;;8.60;86.05
10720;BME280;5411;58.386;15.560;2023-05-20T02:02:42;102108.34;;;8.58;86.67
10720;BME280;5411;58.386;15.560;2023-05-20T02:05:11;102111.16;;;8.57;87.56
10720;BME280;5411;58.386;15.560;2023-05-20T02:07:39;102115.78;;;8.55;87.33
10720;BME280;5411;58.386;15.560;2023-05-20T02:10:10;102116.91;;;8.52;87.07
10720;BME280;5411;58.386;15.560;2023-05-20T02:12:38;102125.09;;;8.51;86.99
10720;BME280;5411;58.386;15.560;2023-05-20T02:15:07;102128.59;;;8.51;88.14
10720;BME280;5411;58.386;15.560;2023-05-20T02:17:36;102122.56;;;8.49;87.72
10720;BME280;5411;58.386;15.560;2023-05-20T02:20:06;102115.41;;;8.50;88.44
10720;BME280;5411;58.386;15.560;2023-05-20T02:22:36;102116.25;;;8.50;88.11
10720;BME280;5411;58.386;15.560;2023-05-20T02:25:05;102109.22;;;8.49;88.39
10720;BME280;5411;58.386;15.560;2023-05-20T02:27:35;102120.88;;;8.48;88.31
10720;BME280;5411;58.386;15.560;2023-05-20T02:30:06;102120.19;;;8.46;88.64
10720;BME280;5411;58.386;15.560;2023-05-20T02:32:34;102115.81;;;8.45;88.30
10720;BME280;5411;58.386;15.560;2023-05-20T02:35:05;102116.81;;;8.44;88.31
10720;BME280;5411;58.386;15.560;2023-05-20T02:37:33;102111.34;;;8.46;89.50
10720;BME280;5411;58.386;15.560;2023-05-20T02:40:02;102115.81;;;8.45;89.53
10720;BME280;5411;58.386;15.560;2023-05-20T02:42:30;102122.00;;;8.46;90.01
10720;BME280;5411;58.386;15.560;2023-05-20T02:45:00;102119.19;;;8.47;90.66
10720;BME280;5411;58.386;15.560;2023-05-20T02:47:29;102128.88;;;8.48;90.45
10720;BME280;5411;58.386;15.560;2023-05-20T02:49:57;102123.09;;;8.53;89.93
10720;BME280;5411;58.386;15.560;2023-05-20T02:52:25;102109.31;;;8.57;89.45
10720;BME280;5411;58.386;15.560;2023-05-20T02:55:19;102111.41;;;8.64;90.15
10720;BME280;5411;58.386;15.560;2023-05-20T02:57:49;102109.69;;;8.72;89.71
10720;BME280;5411;58.386;15.560;2023-05-20T03:00:19;102122.69;;;8.85;90.18
10720;BME280;5411;58.386;15.560;2023-05-20T03:02:49;102122.75;;;9.03;89.14
10720;BME280;5411;58.386;15.560;2023-05-20T03:05:17;102115.44;;;9.22;87.91
10720;BME280;5411;58.386;15.560;2023-05-20T03:07:46;102121.66;;;9.41;87.57
10720;BME280;5411;58.386;15.560;2023-05-20T03:10:14;102118.81;;;9.60;86.60
10720;BME280;5411;58.386;15.560;2023-05-20T03:12:42;102130.34;;;9.78;85.43
10720;BME280;5411;58.386;15.560;2023-05-20T03:15:11;102138.66;;;9.93;84.47
10720;BME280;5411;58.386;15.560;2023-05-20T03:17:40;102137.28;;;10.07;83.39
10720;BME280;5411;58.386;15.560;2023-05-20T03:20:10;102146.34;;;10.14;82.73
10720;BME280;5411;58.386;15.560;2023-05-20T03:22:39;102141.09;;;10.22;82.26
10720;BME280;5411;58.386;15.560;2023-05-20T03:25:08;102137.47;;;10.31;81.88
10720;BME280;5411;58.386;15.560;2023-05-20T03:27:36;102132.84;;;10.41;81.34
10720;BME280;5411;58.386;15.560;2023-05-20T03:30:05;102139.03;;;10.42;80.94
10720;BME280;5411;58.386;15.560;2023-05-20T03:32:35;102130.53;;;10.46;80.74
10720;BME280;5411;58.386;15.560;2023-05-20T03:35:06;102140.41;;;10.46;80.41
10720;BME280;5411;58.386;15.560;2023-05-20T03:37:36;102137.03;;;10.44;80.25
10720;BME280;5411;58.386;15.560;2023-05-20T03:40:05;102132.84;;;10.41;80.62
10720;BME280;5411;58.386;15.560;2023-05-20T03:42:34;102138.72;;;10.45;81.17
10720;BME280;5411;58.386;15.560;2023-05-20T03:45:02;102144.63;;;10.48;80.94
10720;BME280;5411;58.386;15.560;2023-05-20T03:47:31;102139.25;;;10.48;81.05
10720;BME280;5411;58.386;15.560;2023-05-20T03:49:59;102136.06;;;10.45;81.19
10720;BME280;5411;58.386;15.560;2023-05-20T03:52:29;102138.34;;;10.40;81.71
10720;BME280;5411;58.386;15.560;2023-05-20T03:54:57;102134.09;;;10.29;81.64
10720;BME280;5411;58.386;15.560;2023-05-20T03:57:26;102134.91;;;10.21;81.77
10720;BME280;5411;58.386;15.560;2023-05-20T03:59:55;102139.00;;;10.16;82.09
10720;BME280;5411;58.386;15.560;2023-05-20T04:02:23;102145.69;;;10.12;82.79
10720;BME280;5411;58.386;15.560;2023-05-20T04:04:52;102153.69;;;10.12;82.75
10720;BME280;5411;58.386;15.560;2023-05-20T04:07:23;102153.22;;;10.16;83.38
10720;BME280;5411;58.386;15.560;2023-05-20T04:09:53;102153.47;;;10.23;83.37
10720;BME280;5411;58.386;15.560;2023-05-20T04:12:21;102152.53;;;10.32;83.63
10720;BME280;5411;58.386;15.560;2023-05-20T04:14:51;102151.06;;;10.38;82.63
10720;BME280;5411;58.386;15.560;2023-05-20T04:17:21;102145.75;;;10.46;82.51
10720;BME280;5411;58.386;15.560;2023-05-20T04:19:49;102143.28;;;10.52;82.85
10720;BME280;5411;58.386;15.560;2023-05-20T04:22:17;102139.97;;;10.58;83.02
10720;BME280;5411;58.386;15.560;2023-05-20T04:24:45;102146.22;;;10.67;82.04
10720;BME280;5411;58.386;15.560;2023-05-20T04:27:15;102150.09;;;10.73;82.14
10720;BME280;5411;58.386;15.560;2023-05-20T04:29:44;102139.91;;;10.76;82.62
10720;BME280;5411;58.386;15.560;2023-05-20T04:32:16;102140.25;;;10.81;82.51
10720;BME280;5411;58.386;15.560;2023-05-20T04:34:45;102141.78;;;10.84;82.34
10720;BME280;5411;58.386;15.560;2023-05-20T04:37:14;102144.00;;;10.88;82.12
10720;BME280;5411;58.386;15.560;2023-05-20T04:39:43;102140.66;;;10.94;82.57
10720;BME280;5411;58.386;15.560;2023-05-20T04:42:15;102138.19;;;11.01;83.20
10720;BME280;5411;58.386;15.560;2023-05-20T04:44:45;102138.50;;;11.06;83.07
10720;BME280;5411;58.386;15.560;2023-05-20T04:47:14;102135.38;;;11.11;83.04
10720;BME280;5411;58.386;15.560;2023-05-20T04:49:42;102135.38;;;11.19;82.20
10720;BME280;5411;58.386;15.560;2023-05-20T04:52:11;102138.25;;;11.25;81.87
10720;BME280;5411;58.386;15.560;2023-05-20T04:54:39;102138.94;;;11.35;81.95
10720;BME280;5411;58.386;15.560;2023-05-20T04:57:08;102142.31;;;11.46;81.95
10720;BME280;5411;58.386;15.560;2023-05-20T04:59:38;102143.84;;;11.56;81.32
10720;BME280;5411;58.386;15.560;2023-05-20T05:02:06;102143.84;;;11.64;82.17
10720;BME280;5411;58.386;15.560;2023-05-20T05:04:35;102151.25;;;11.70;80.71
10720;BME280;5411;58.386;15.560;2023-05-20T05:07:04;102157.09;;;11.74;80.91
10720;BME280;5411;58.386;15.560;2023-05-20T05:09:32;102150.75;;;11.75;80.99
10720;BME280;5411;58.386;15.560;2023-05-20T05:12:00;102153.59;;;11.73;80.93
10720;BME280;5411;58.386;15.560;2023-05-20T05:14:32;102156.09;;;11.75;79.92
10720;BME280;5411;58.386;15.560;2023-05-20T05:17:01;102161.16;;;11.78;80.15
10720;BME280;5411;58.386;15.560;2023-05-20T05:19:29;102155.81;;;11.78;79.70
10720;BME280;5411;58.386;15.560;2023-05-20T05:21:58;102161.00;;;11.80;79.67
10720;BME280;5411;58.386;15.560;2023-05-20T05:24:27;102154.66;;;11.81;79.28
10720;BME280;5411;58.386;15.560;2023-05-20T05:26:55;102159.50;;;11.77;79.90
10720;BME280;5411;58.386;15.560;2023-05-20T05:29:24;102164.84;;;11.77;79.75
10720;BME280;5411;58.386;15.560;2023-05-20T05:31:52;102170.41;;;11.84;79.52
10720;BME280;5411;58.386;15.560;2023-05-20T05:34:23;102169.72;;;11.82;79.66
10720;BME280;5411;58.386;15.560;2023-05-20T05:36:51;102167.22;;;11.80;79.20
10720;BME280;5411;58.386;15.560;2023-05-20T05:39:19;102168.88;;;11.81;79.23
10720;BME280;5411;58.386;15.560;2023-05-20T05:41:48;102174.25;;;11.89;78.73
10720;BME280;5411;58.386;15.560;2023-05-20T05:44:16;102169.22;;;12.02;78.30
10720;BME280;5411;58.386;15.560;2023-05-20T05:46:45;102170.91;;;12.11;78.33
10720;BME280;5411;58.386;15.560;2023-05-20T05:49:13;102170.56;;;12.23;77.05
10720;BME280;5411;58.386;15.560;2023-05-20T05:51:43;102173.41;;;12.37;75.58
10720;BME280;5411;58.386;15.560;2023-05-20T05:54:11;102178.91;;;12.52;76.19
10720;BME280;5411;58.386;15.560;2023-05-20T05:56:42;102173.03;;;12.65;75.52
10720;BME280;5411;58.386;15.560;2023-05-20T05:59:10;102179.22;;;12.73;74.32
10720;BME280;5411;58.386;15.560;2023-05-20T06:01:38;102178.50;;;12.88;74.49
10720;BME280;5411;58.386;15.560;2023-05-20T06:04:07;102179.28;;;13.04;73.08
10720;BME280;5411;58.386;15.560;2023-05-20T06:06:35;102176.91;;;13.17;71.48
10720;BME280;5411;58.386;15.560;2023-05-20T06:09:05;102172.94;;;13.36;70.70
10720;BME280;5411;58.386;15.560;2023-05-20T06:11:33;102180.56;;;13.55;69.90
10720;BME280;5411;58.386;15.560;2023-05-20T06:14:02;102173.69;;;13.76;70.53
10720;BME280;5411;58.386;15.560;2023-05-20T06:16:30;102177.94;;;13.93;68.53
10720;BME280;5411;58.386;15.560;2023-05-20T06:18:59;102175.19;;;14.01;67.30
10720;BME280;5411;58.386;15.560;2023-05-20T06:21:29;102166.97;;;14.17;68.51
10720;BME280;5411;58.386;15.560;2023-05-20T06:23:57;102177.25;;;14.37;66.87
10720;BME280;5411;58.386;15.560;2023-05-20T06:26:27;102176.75;;;14.56;65.51
10720;BME280;5411;58.386;15.560;2023-05-20T06:28:55;102175.44;;;14.67;64.27
10720;BME280;5411;58.386;15.560;2023-05-20T06:31:24;102175.72;;;14.72;63.96
10720;BME280;5411;58.386;15.560;2023-05-20T06:33:52;102177.69;;;14.78;62.12
10720;BME280;5411;58.386;15.560;2023-05-20T06:36:21;102178.69;;;14.91;62.56
10720;BME280;5411;58.386;15.560;2023-05-20T06:38:49;102188.63;;;15.06;64.07
10720;BME280;5411;58.386;15.560;2023-05-20T06:41:18;102180.28;;;15.15;61.04
10720;BME280;5411;58.386;15.560;2023-05-20T06:43:48;102190.47;;;15.20;60.38
10720;BME280;5411;58.386;15.560;2023-05-20T06:46:19;102192.81;;;15.23;58.58
10720;BME280;5411;58.386;15.560;2023-05-20T06:48:47;102181.28;;;15.29;58.29
10720;BME280;5411;58.386;15.560;2023-05-20T06:51:15;102185.72;;;15.37;58.44
10720;BME280;5411;58.386;15.560;2023-05-20T06:53:44;102195.81;;;15.49;58.97
10720;BME280;5411;58.386;15.560;2023-05-20T06:56:12;102180.94;;;15.53;57.19
10720;BME280;5411;58.386;15.560;2023-05-20T06:58:41;102182.59;;;15.69;57.87
10720;BME280;5411;58.386;15.560;2023-05-20T07:01:11;102180.09;;;15.89;58.01
10720;BME280;5411;58.386;15.560;2023-05-20T07:03:43;102184.41;;;16.04;58.63
10720;BME280;5411;58.386;15.560;2023-05-20T07:06:11;102187.66;;;16.21;55.32
10720;BME280;5411;58.386;15.560;2023-05-20T07:08:40;102188.16;;;16.31;55.69
10720;BME280;5411;58.386;15.560;2023-05-20T07:11:08;102185.75;;;16.43;54.81
10720;BME280;5411;58.386;15.560;2023-05-20T07:13:36;102189.75;;;16.47;52.50
10720;BME280;5411;58.386;15.560;2023-05-20T07:16:04;102188.66;;;16.63;53.01
10720;BME280;5411;58.386;15.560;2023-05-20T07:18:34;102178.75;;;16.77;52.52
10720;BME280;5411;58.386;15.560;2023-05-20T07:21:03;102186.53;;;16.93;51.24
10720;BME280;5411;58.386;15.560;2023-05-20T07:23:32;102184.72;;;17.00;50.51
10720;BME280;5411;58.386;15.560;2023-05-20T07:26:00;102184.53;;;17.08;48.58
10720;BME280;5411;58.386;15.560;2023-05-20T07:28:29;102177.94;;;17.24;48.72
10720;BME280;5411;58.386;15.560;2023-05-20T07:30:57;102179.03;;;17.36;47.55
10720;BME280;5411;58.386;15.560;2023-05-20T07:33:25;102170.13;;;17.42;46.19
10720;BME280;5411;58.386;15.560;2023-05-20T07:35:58;102164.94;;;17.54;45.27
10720;BME280;5411;58.386;15.560;2023-05-20T07:38:26;102166.25;;;17.64;43.39
10720;BME280;5411;58.386;15.560;2023-05-20T07:40:54;102165.63;;;17.69;42.88
10720;BME280;5411;58.386;15.560;2023-05-20T07:43:22;102165.00;;;17.73;38.13
10720;BME280;5411;58.386;15.560;2023-05-20T07:45:50;102168.56;;;17.87;39.01
10720;BME280;5411;58.386;15.560;2023-05-20T07:48:19;102170.25;;;18.01;41.60
10720;BME280;5411;58.386;15.560;2023-05-20T07:50:47;102165.25;;;18.18;41.79
10720;BME280;5411;58.386;15.560;2023-05-20T07:53:17;102159.84;;;18.31;41.80
10720;BME280;5411;58.386;15.560;2023-05-20T07:55:45;102160.25;;;18.48;41.03
10720;BME280;5411;58.386;15.560;2023-05-20T07:58:14;102152.31;;;18.60;40.25
10720;BME280;5411;58.386;15.560;2023-05-20T08:00:43;102157.50;;;18.68;39.40
10720;BME280;5411;58.386;15.560;2023-05-20T08:03:11;102161.88;;;18.75;41.16
10720;BME280;5411;58.386;15.560;2023-05-20T08:05:40;102150.16;;;18.81;40.38
10720;BME280;5411;58.386;15.560;2023-05-20T08:08:09;102159.97;;;18.89;39.27
10720;BME280;5411;58.386;15.560;2023-05-20T08:10:39;102151.84;;;18.89;39.40
10720;BME280;5411;58.386;15.560;2023-05-20T08:13:07;102155.97;;;18.98;39.92
10720;BME280;5411;58.386;15.560;2023-05-20T08:15:35;102149.66;;;19.04;40.33
10720;BME280;5411;58.386;15.560;2023-05-20T08:18:03;102154.00;;;19.18;38.24
10720;BME280;5411;58.386;15.560;2023-05-20T08:20:32;102153.56;;;19.21;37.79
10720;BME280;5411;58.386;15.560;2023-05-20T08:23:00;102155.84;;;19.25;35.57
10720;BME280;5411;58.386;15.560;2023-05-20T08:25:28;102149.63;;;19.17;35.41
10720;BME280;5411;58.386;15.560;2023-05-20T08:28:00;102147.56;;;19.06;36.10
10720;BME280;5411;58.386;15.560;2023-05-20T08:30:29;102150.09;;;19.08;34.32
10720;BME280;5411;58.386;15.560;2023-05-20T08:32:57;102155.72;;;19.13;34.36
10720;BME280;5411;58.386;15.560;2023-05-20T08:35:28;102147.97;;;19.16;34.15
10720;BME280;5411;58.386;15.560;2023-05-20T08:37:57;102148.13;;;19.21;32.24
10720;BME280;5411;58.386;15.560;2023-05-20T08:40:27;102150.22;;;19.26;33.25
10720;BME280;5411;58.386;15.560;2023-05-20T08:42:57;102143.75;;;19.27;31.91
10720;BME280;5411;58.386;15.560;2023-05-20T08:45:31;102153.28;;;19.36;32.68
10720;BME280;5411;58.386;15.560;2023-05-20T08:48:00;102152.25;;;19.37;32.26
10720;BME280;5411;58.386;15.560;2023-05-20T08:50:28;102150.22;;;19.26;31.93
10720;BME280;5411;58.386;15.560;2023-05-20T08:53:06;102150.63;;;19.30;32.85
10720;BME280;5411;58.386;15.560;2023-05-20T08:55:42;102152.66;;;19.34;32.37
10720;BME280;5411;58.386;15.560;2023-05-20T08:58:14;102144.88;;;19.44;32.90
10720;BME280;5411;58.386;15.560;2023-05-20T09:00:43;102142.16;;;19.44;31.52
10720;BME280;5411;58.386;15.560;2023-05-20T09:03:11;102143.25;;;19.43;32.04
10720;BME280;5411;58.386;15.560;2023-05-20T09:05:39;102144.88;;;19.51;31.45
10720;BME280;5411;58.386;15.560;2023-05-20T09:08:09;102136.47;;;19.59;32.98
10720;BME280;5411;58.386;15.560;2023-05-20T09:10:39;102143.06;;;19.76;32.84
10720;BME280;5411;58.386;15.560;2023-05-20T09:13:09;102148.81;;;19.86;31.48
10720;BME280;5411;58.386;15.560;2023-05-20T09:15:38;102140.34;;;20.01;31.87
10720;BME280;5411;58.386;15.560;2023-05-20T09:18:07;102135.84;;;20.13;30.34
10720;BME280;5411;58.386;15.560;2023-05-20T09:20:36;102131.22;;;20.20;29.45
10720;BME280;5411;58.386;15.560;2023-05-20T09:23:08;102129.53;;;20.19;29.79
10720;BME280;5411;58.386;15.560;2023-05-20T09:25:37;102125.03;;;20.32;29.11
10720;BME280;5411;58.386;15.560;2023-05-20T09:28:06;102131.44;;;20.44;29.46
10720;BME280;5411;58.386;15.560;2023-05-20T09:30:35;102137.34;;;20.59;30.15
10720;BME280;5411;58.386;15.560;2023-05-20T09:33:05;102128.03;;;20.67;29.14
10720;BME280;5411;58.386;15.560;2023-05-20T09:35:35;102129.25;;;20.71;29.44
10720;BME280;5411;58.386;15.560;2023-05-20T09:38:05;102136.75;;;20.75;29.06
10720;BME280;5411;58.386;15.560;2023-05-20T09:40:34;102136.88;;;20.80;30.19
10720;BME280;5411;58.386;15.560;2023-05-20T09:43:07;102129.09;;;20.84;31.39
10720;BME280;5411;58.386;15.560;2023-05-20T09:45:37;102132.00;;;20.89;30.18
10720;BME280;5411;58.386;15.560;2023-05-20T09:48:08;102137.72;;;20.99;29.90
10720;BME280;5411;58.386;15.560;2023-05-20T09:50:39;102127.50;;;21.13;29.14
10720;BME280;5411;58.386;15.560;2023-05-20T09:53:09;102126.66;;;21.12;27.43
10720;BME280;5411;58.386;15.560;2023-05-20T09:55:39;102130.34;;;21.18;27.49
10720;BME280;5411;58.386;15.560;2023-05-20T09:58:08;102124.47;;;21.21;28.99
10720;BME280;5411;58.386;15.560;2023-05-20T10:00:42;102136.19;;;21.21;27.07
10720;BME280;5411;58.386;15.560;2023-05-20T10:03:11;102133.25;;;21.23;26.85
10720;BME280;5411;58.386;15.560;2023-05-20T10:05:44;102135.16;;;21.22;27.27
10720;BME280;5411;58.386;15.560;2023-05-20T10:11:18;102136.50;;;21.13;28.17
10720;BME280;5411;58.386;15.560;2023-05-20T10:14:05;102136.03;;;21.16;28.33
10720;BME280;5411;58.386;15.560;2023-05-20T10:16:41;102121.91;;;21.26;30.11
10720;BME280;5411;58.386;15.560;2023-05-20T10:19:22;102118.13;;;21.27;27.24
10720;BME280;5411;58.386;15.560;2023-05-20T10:21:56;102115.25;;;21.22;27.84
10720;BME280;5411;58.386;15.560;2023-05-20T10:24:29;102113.81;;;21.19;28.92
10720;BME280;5411;58.386;15.560;2023-05-20T10:27:02;102115.47;;;21.20;29.54
10720;BME280;5411;58.386;15.560;2023-05-20T10:29:42;102103.91;;;21.25;29.51
10720;BME280;5411;58.386;15.560;2023-05-20T10:32:11;102105.13;;;21.29;30.37
10720;BME280;5411;58.386;15.560;2023-05-20T10:34:46;102100.66;;;21.46;31.76
10720;BME280;5411;58.386;15.560;2023-05-20T10:37:26;102098.69;;;21.53;30.32
10720;BME280;5411;58.386;15.560;2023-05-20T10:40:08;102099.28;;;21.55;30.54
10720;BME280;5411;58.386;15.560;2023-05-20T10:42:38;102097.38;;;21.56;30.18
10720;BME280;5411;58.386;15.560;2023-05-20T10:45:08;102091.56;;;21.52;29.47
10720;BME280;5411;58.386;15.560;2023-05-20T10:47:41;102094.03;;;21.42;28.06
10720;BME280;5411;58.386;15.560;2023-05-20T10:50:25;102084.50;;;21.33;27.82
10720;BME280;5411;58.386;15.560;2023-05-20T10:53:01;102083.44;;;21.34;28.32
10720;BME280;5411;58.386;15.560;2023-05-20T10:55:34;102073.63;;;21.33;29.82
10720;BME280;5411;58.386;15.560;2023-05-20T10:58:04;102073.16;;;21.18;31.13
10720;BME280;5411;58.386;15.560;2023-05-20T11:00:34;102064.16;;;21.17;31.08
10720;BME280;5411;58.386;15.560;2023-05-20T11:03:04;102071.53;;;21.17;31.50
10720;BME280;5411;58.386;15.560;2023-05-20T11:05:35;102056.78;;;21.24;31.60
10720;BME280;5411;58.386;15.560;2023-05-20T11:08:05;102049.69;;;21.35;32.42
10720;BME280;5411;58.386;15.560;2023-05-20T11:10:50;102049.00;;;21.40;30.72
10720;BME280;5411;58.386;15.560;2023-05-20T11:13:18;102051.53;;;21.53;30.19
10720;BME280;5411;58.386;15.560;2023-05-20T11:15:48;102044.81;;;21.67;30.22
10720;BME280;5411;58.386;15.560;2023-05-20T11:18:16;102046.34;;;21.86;30.84
10720;BME280;5411;58.386;15.560;2023-05-20T11:20:46;102036.78;;;22.07;30.48
10720;BME280;5411;58.386;15.560;2023-05-20T11:23:14;102037.22;;;22.27;29.81
10720;BME280;5411;58.386;15.560;2023-05-20T11:25:43;102041.28;;;22.36;30.11
10720;BME280;5411;58.386;15.560;2023-05-20T11:28:12;102036.72;;;22.54;28.87
10720;BME280;5411;58.386;15.560;2023-05-20T11:30:41;102027.53;;;22.71;28.79
10720;BME280;5411;58.386;15.560;2023-05-20T11:33:11;102016.13;;;22.74;30.06
10720;BME280;5411;58.386;15.560;2023-05-20T11:35:44;102026.22;;;22.74;30.60
10720;BME280;5411;58.386;15.560;2023-05-20T11:38:14;102023.97;;;22.71;30.09
10720;BME280;5411;58.386;15.560;2023-05-20T11:40:43;102023.38;;;22.69;30.15
10720;BME280;5411;58.386;15.560;2023-05-20T11:43:17;102030.38;;;22.65;29.04
10720;BME280;5411;58.386;15.560;2023-05-20T11:45:46;102026.00;;;22.64;28.72
10720;BME280;5411;58.386;15.560;2023-05-20T11:48:15;102031.59;;;22.57;29.38
10720;BME280;5411;58.386;15.560;2023-05-20T11:50:45;102032.44;;;22.58;28.36
10720;BME280;5411;58.386;15.560;2023-05-20T11:53:16;102034.72;;;22.49;29.33
10720;BME280;5411;58.386;15.560;2023-05-20T11:55:45;102029.03;;;22.39;28.75
10720;BME280;5411;58.386;15.560;2023-05-20T11:58:17;102029.50;;;22.48;28.16
10720;BME280;5411;58.386;15.560;2023-05-20T12:00:45;102033.63;;;22.62;29.18
10720;BME280;5411;58.386;15.560;2023-05-20T12:03:23;102029.91;;;22.80;29.57
10720;BME280;5411;58.386;15.560;2023-05-20T12:05:52;102029.22;;;23.01;29.67
10720;BME280;5411;58.386;15.560;2023-05-20T12:08:21;102032.81;;;23.18;29.58
10720;BME280;5411;58.386;15.560;2023-05-20T12:10:50;102025.97;;;23.32;29.37
10720;BME280;5411;58.386;15.560;2023-05-20T12:13:18;102028.88;;;23.42;30.06
10720;BME280;5411;58.386;15.560;2023-05-20T12:15:47;102022.63;;;23.59;29.66
10720;BME280;5411;58.386;15.560;2023-05-20T12:18:15;102020.31;;;23.67;30.21
10720;BME280;5411;58.386;15.560;2023-05-20T12:20:43;102024.47;;;23.70;30.26
10720;BME280;5411;58.386;15.560;2023-05-20T12:23:12;102021.78;;;23.75;29.89
10720;BME280;5411;58.386;15.560;2023-05-20T12:25:43;102014.25;;;23.65;30.07
10720;BME280;5411;58.386;15.560;2023-05-20T12:28:13;102014.25;;;23.65;30.08
10720;BME280;5411;58.386;15.560;2023-05-20T12:30:42;102013.84;;;23.57;29.89
10720;BME280;5411;58.386;15.560;2023-05-20T12:33:10;102008.59;;;23.38;28.77
10720;BME280;5411;58.386;15.560;2023-05-20T12:35:40;102004.94;;;23.33;29.81
10720;BME280;5411;58.386;15.560;2023-05-20T12:38:09;101988.97;;;23.25;30.34
10720;BME280;5411;58.386;15.560;2023-05-20T12:40:37;102001.56;;;23.26;30.46
10720;BME280;5411;58.386;15.560;2023-05-20T12:43:07;101999.16;;;23.29;30.85
10720;BME280;5411;58.386;15.560;2023-05-20T12:45:35;101995.50;;;23.24;31.28
10720;BME280;5411;58.386;15.560;2023-05-20T12:48:04;101998.66;;;23.16;30.00
10720;BME280;5411;58.386;15.560;2023-05-20T12:50:33;101987.63;;;23.10;30.79
10720;BME280;5411;58.386;15.560;2023-05-20T12:53:02;101988.59;;;23.04;30.66
10720;BME280;5411;58.386;15.560;2023-05-20T12:55:30;101986.84;;;22.98;29.72
10720;BME280;5411;58.386;15.560;2023-05-20T12:57:58;101984.44;;;22.85;28.42
10720;BME280;5411;58.386;15.560;2023-05-20T13:00:28;101977.22;;;22.67;29.98
10720;BME280;5411;58.386;15.560;2023-05-20T13:02:57;101971.69;;;22.62;29.79
10720;BME280;5411;58.386;15.560;2023-05-20T13:05:25;101974.41;;;22.62;30.81
10720;BME280;5411;58.386;15.560;2023-05-20T13:07:54;101978.28;;;22.66;30.38